C65

Plymouth Municipal Airport

Plymouth, Indiana, USA
METAR KC65 121935Z AUTO 21011KT 10SM SCT030 07/02 A2976 RMK A01
Observed Flight Rules
Dec-12 @ 19:35 UTC (30 minutes ago) Visual Flight Rules
Wind Visibility Clouds
210° at 11 knots 10 miles
  • Scattered at 3,000' AGL
Temperatures Readings
Current 7°C / 45°F
Dewpoint 2°C / 36°F
Humidity 71%
Altimeter 29.76" Hg
Pressure 1008 hPa
Elevation 244
METAR KC65 121935Z AUTO 21011KT 10SM SCT030 07/02 A2976 RMK A01
Observed Flight Rules
Dec-12 @ 19:35 UTC
(30 minutes ago)
VFR
Wind Visibility
210° at 11 knots 10 miles
Clouds
  • Scattered at 3,000' AGL
Temperature Dewpoint
7°C / 45°F 2°C / 36°F
Humidity Altimeter Pressure
71% 29.76" Hg 1008 hPa